createdAt,value
2023-05-13T00:02:03.227Z,16
2023-05-13T00:04:51.315Z,13
2023-05-13T00:07:39.119Z,13
2023-05-13T00:10:27.294Z,13
2023-05-13T00:13:15.337Z,9
2023-05-13T00:16:03.351Z,14
2023-05-13T00:18:51.534Z,17
2023-05-13T00:21:39.396Z,12
2023-05-13T00:24:27.230Z,11
2023-05-13T00:27:15.019Z,13
2023-05-13T00:30:02.907Z,9
2023-05-13T00:32:50.884Z,12
2023-05-13T00:35:38.774Z,10
2023-05-13T00:38:26.462Z,12
2023-05-13T00:41:14.350Z,12
2023-05-13T00:44:02.229Z,13
2023-05-13T00:46:50.069Z,13
2023-05-13T00:49:37.846Z,15
2023-05-13T00:52:25.888Z,17
2023-05-13T00:55:13.771Z,8
2023-05-13T00:58:01.612Z,5
2023-05-13T01:00:49.447Z,14
2023-05-13T01:03:37.568Z,11
2023-05-13T01:06:25.495Z,12
2023-05-13T01:09:13.597Z,14
2023-05-13T01:12:01.394Z,10
2023-05-13T01:14:49.248Z,10
2023-05-13T01:17:37.213Z,12
2023-05-13T01:20:25.299Z,18
2023-05-13T01:23:13.104Z,15
2023-05-13T01:26:01.072Z,12
2023-05-13T01:28:48.854Z,9
2023-05-13T01:31:36.733Z,12
2023-05-13T01:34:24.621Z,12
2023-05-13T01:37:12.510Z,11
2023-05-13T01:40:00.266Z,11
2023-05-13T01:42:52.836Z,10
2023-05-13T01:45:40.569Z,11
2023-05-13T01:48:28.462Z,10
2023-05-13T01:51:16.320Z,12
2023-05-13T01:54:04.191Z,10
2023-05-13T01:56:52.038Z,8
2023-05-13T01:59:39.946Z,11
2023-05-13T02:02:27.634Z,11
2023-05-13T02:05:15.821Z,15
2023-05-13T02:08:03.616Z,11
2023-05-13T02:10:51.485Z,11
2023-05-13T02:13:39.196Z,12
2023-05-13T02:16:27.082Z,8
2023-05-13T02:19:15.351Z,7
2023-05-13T02:22:03.131Z,14
2023-05-13T02:24:50.760Z,13
2023-05-13T02:27:38.548Z,13
2023-05-13T02:30:26.203Z,15
2023-05-13T02:33:14.032Z,11
2023-05-13T02:36:01.800Z,9
2023-05-13T02:38:49.679Z,13
2023-05-13T02:41:37.352Z,10
2023-05-13T02:44:25.198Z,11
2023-05-13T02:47:12.976Z,11
2023-05-13T02:50:01.088Z,6
2023-05-13T02:52:48.763Z,14
2023-05-13T02:55:36.585Z,14
2023-05-13T02:58:24.367Z,18
2023-05-13T03:01:12.229Z,10
2023-05-13T03:04:00.425Z,15
2023-05-13T03:06:48.329Z,18
2023-05-13T03:09:36.117Z,15
2023-05-13T03:12:23.984Z,17
2023-05-13T03:15:11.686Z,18
2023-05-13T03:18:04.131Z,19
2023-05-13T03:20:52.343Z,17
2023-05-13T03:23:40.204Z,24
2023-05-13T03:26:28.031Z,27
2023-05-13T03:29:15.868Z,29
2023-05-13T03:32:03.708Z,39
2023-05-13T03:34:51.642Z,42
2023-05-13T03:37:39.406Z,51
2023-05-13T03:40:27.154Z,57
2023-05-13T03:43:15.001Z,65
2023-05-13T03:46:02.825Z,73
2023-05-13T03:48:50.712Z,84
2023-05-13T03:51:38.519Z,95
2023-05-13T03:54:26.195Z,103
2023-05-13T03:57:14.109Z,113
2023-05-13T04:00:01.839Z,125
2023-05-13T04:02:49.753Z,139
2023-05-13T04:05:37.816Z,153
2023-05-13T04:08:25.702Z,161
2023-05-13T04:11:13.528Z,175
2023-05-13T04:14:01.577Z,185
2023-05-13T04:16:49.277Z,194
2023-05-13T04:19:36.988Z,206
2023-05-13T04:22:24.672Z,216
2023-05-13T04:25:12.612Z,225
2023-05-13T04:28:00.415Z,230
2023-05-13T04:30:48.278Z,241
2023-05-13T04:33:36.254Z,247
2023-05-13T04:36:24.105Z,258
2023-05-13T04:39:11.872Z,263
2023-05-13T04:41:59.661Z,275
2023-05-13T04:44:47.321Z,280
2023-05-13T04:47:35.508Z,287
2023-05-13T04:50:23.509Z,293
2023-05-13T04:53:12.481Z,302
2023-05-13T04:56:00.215Z,305
2023-05-13T04:58:48.049Z,309
2023-05-13T05:01:35.782Z,316
2023-05-13T05:04:24.054Z,324
2023-05-13T05:07:11.812Z,325
2023-05-13T05:09:59.918Z,337
2023-05-13T05:12:47.582Z,335
2023-05-13T05:15:35.419Z,337
2023-05-13T05:18:23.305Z,345
2023-05-13T05:21:11.512Z,350
2023-05-13T05:23:59.538Z,355
2023-05-13T05:26:47.318Z,359
2023-05-13T05:29:35.207Z,360
2023-05-13T05:32:23.160Z,365
2023-05-13T05:35:11.253Z,369
2023-05-13T05:37:59.366Z,369
2023-05-13T05:40:47.258Z,376
2023-05-13T05:43:35.143Z,378
2023-05-13T05:46:22.965Z,378
2023-05-13T05:49:10.868Z,386
2023-05-13T05:51:58.716Z,387
2023-05-13T05:54:46.581Z,394
2023-05-13T05:57:34.522Z,398
2023-05-13T06:00:22.718Z,394
2023-05-13T06:03:11.163Z,402
2023-05-13T06:05:59.613Z,403
2023-05-13T06:08:47.667Z,409
2023-05-13T06:11:35.752Z,412
2023-05-13T06:14:23.673Z,411
2023-05-13T06:17:11.562Z,420
2023-05-13T06:19:59.594Z,426
2023-05-13T06:22:47.686Z,421
2023-05-13T06:25:35.494Z,425
2023-05-13T06:28:23.561Z,430
2023-05-13T06:31:11.553Z,432
2023-05-13T06:33:59.747Z,436
2023-05-13T06:36:47.733Z,440
2023-05-13T06:39:35.979Z,440
2023-05-13T06:42:24.042Z,459
2023-05-13T06:45:11.952Z,483
2023-05-13T06:47:59.815Z,504
2023-05-13T06:50:47.975Z,523
2023-05-13T06:53:35.717Z,534
2023-05-13T06:56:23.593Z,537
2023-05-13T06:59:11.604Z,546
2023-05-13T07:01:59.595Z,547
2023-05-13T07:04:47.760Z,559
2023-05-13T07:07:35.502Z,563
2023-05-13T07:10:23.543Z,565
2023-05-13T07:13:11.910Z,573
2023-05-13T07:15:59.804Z,577
2023-05-13T07:18:47.982Z,586
2023-05-13T07:21:36.094Z,583
2023-05-13T07:24:23.981Z,594
2023-05-13T07:27:11.868Z,593
2023-05-13T07:29:59.701Z,599
2023-05-13T07:32:47.543Z,597
2023-05-13T07:35:35.465Z,600
2023-05-13T07:38:23.260Z,608
2023-05-13T07:41:11.143Z,611
2023-05-13T07:43:58.968Z,609
2023-05-13T07:46:47.098Z,616
2023-05-13T07:49:35.337Z,623
2023-05-13T07:52:23.250Z,623
2023-05-13T07:55:11.133Z,626
2023-05-13T07:57:59.034Z,626
2023-05-13T08:00:46.750Z,631
2023-05-13T08:03:34.624Z,633
2023-05-13T08:06:22.956Z,640
2023-05-13T08:09:10.816Z,636
2023-05-13T08:11:58.551Z,639
2023-05-13T08:14:47.619Z,643
2023-05-13T08:17:36.599Z,644
2023-05-13T08:20:24.560Z,648
2023-05-13T08:23:12.268Z,650
2023-05-13T08:26:05.653Z,650
2023-05-13T08:28:54.892Z,651
2023-05-13T08:31:42.976Z,656
2023-05-13T08:34:31.103Z,656
2023-05-13T08:37:18.788Z,652
2023-05-13T08:40:06.551Z,655
2023-05-13T08:42:54.552Z,661
2023-05-13T08:45:42.157Z,665
2023-05-13T08:48:30.077Z,606
2023-05-13T08:51:17.757Z,571
2023-05-13T08:54:05.485Z,663
2023-05-13T08:56:53.196Z,596
2023-05-13T08:59:41.108Z,586
2023-05-13T09:02:28.879Z,563
2023-05-13T09:05:16.992Z,572
2023-05-13T09:08:04.872Z,565
2023-05-13T09:10:52.593Z,566
2023-05-13T09:13:40.403Z,604
2023-05-13T09:16:28.287Z,676
2023-05-13T09:19:16.085Z,620
2023-05-13T09:22:04.216Z,637
2023-05-13T09:24:52.074Z,604
2023-05-13T09:27:40.519Z,663
2023-05-13T09:30:28.276Z,649
2023-05-13T09:33:16.613Z,584
2023-05-13T09:36:04.311Z,644
2023-05-13T09:38:51.959Z,686
2023-05-13T09:41:39.634Z,703
2023-05-13T09:44:27.370Z,689
2023-05-13T09:47:15.154Z,681
2023-05-13T09:50:03.176Z,560
2023-05-13T09:52:50.881Z,683
2023-05-13T09:55:38.558Z,679
2023-05-13T09:58:26.289Z,551
2023-05-13T10:01:14.248Z,690
2023-05-13T10:04:02.281Z,686
2023-05-13T10:06:50.110Z,689
2023-05-13T10:09:37.841Z,692
2023-05-13T10:12:25.672Z,691
2023-05-13T10:15:13.250Z,686
2023-05-13T10:18:00.987Z,692
2023-05-13T10:20:49.152Z,694
2023-05-13T10:23:36.960Z,693
2023-05-13T10:26:24.588Z,694
2023-05-13T10:29:12.364Z,540
2023-05-13T10:32:00.246Z,690
2023-05-13T10:34:48.241Z,691
2023-05-13T10:37:35.946Z,691
2023-05-13T10:40:24.034Z,543
2023-05-13T10:43:12.310Z,541
2023-05-13T10:46:00.112Z,693
2023-05-13T10:48:47.895Z,695
2023-05-13T10:51:35.654Z,547
2023-05-13T10:54:23.263Z,693
2023-05-13T10:57:10.966Z,690
2023-05-13T10:59:58.639Z,539
2023-05-13T11:02:46.585Z,693
2023-05-13T11:05:34.761Z,692
2023-05-13T11:08:22.508Z,601
2023-05-13T11:11:10.823Z,700
2023-05-13T11:13:58.735Z,697
2023-05-13T11:16:46.520Z,695
2023-05-13T11:19:34.407Z,695
2023-05-13T11:22:22.200Z,693
2023-05-13T11:25:09.870Z,549
2023-05-13T11:27:57.578Z,554
2023-05-13T11:30:45.495Z,695
2023-05-13T11:33:33.322Z,685
2023-05-13T11:36:21.107Z,696
2023-05-13T11:39:09.194Z,695
2023-05-13T11:41:57.028Z,698
2023-05-13T11:44:44.625Z,699
2023-05-13T11:47:32.426Z,700
2023-05-13T11:50:20.273Z,695
2023-05-13T11:53:08.220Z,698
2023-05-13T11:55:55.997Z,559
2023-05-13T11:58:43.731Z,675
2023-05-13T12:01:31.383Z,698
2023-05-13T12:04:19.347Z,701
2023-05-13T12:07:07.186Z,696
2023-05-13T12:09:54.906Z,694
2023-05-13T12:12:42.587Z,552
2023-05-13T12:15:30.227Z,570
2023-05-13T12:18:18.006Z,564
2023-05-13T12:21:06.100Z,539
2023-05-13T12:23:53.813Z,542
2023-05-13T12:26:41.667Z,557
2023-05-13T12:29:31.207Z,557
2023-05-13T12:32:18.971Z,689
2023-05-13T12:35:07.039Z,529
2023-05-13T12:37:54.794Z,597
2023-05-13T12:40:42.449Z,486
2023-05-13T12:43:30.171Z,479
2023-05-13T12:46:17.912Z,489
2023-05-13T12:49:05.881Z,570
2023-05-13T12:51:53.640Z,681
2023-05-13T12:54:41.403Z,563
2023-05-13T12:57:30.532Z,649
2023-05-13T13:00:19.876Z,542
2023-05-13T13:03:08.153Z,532
2023-05-13T13:05:56.524Z,518
2023-05-13T13:08:44.231Z,509
2023-05-13T13:11:32.374Z,496
2023-05-13T13:14:20.071Z,497
2023-05-13T13:17:07.905Z,510
2023-05-13T13:19:55.852Z,521
2023-05-13T13:22:43.535Z,511
2023-05-13T13:25:31.283Z,501
2023-05-13T13:28:19.297Z,490
2023-05-13T13:31:06.985Z,492
2023-05-13T13:33:54.812Z,500
2023-05-13T13:36:42.552Z,496
2023-05-13T13:39:30.430Z,657
2023-05-13T13:42:18.188Z,662
2023-05-13T13:45:06.252Z,659
2023-05-13T13:47:53.992Z,639
2023-05-13T13:50:41.815Z,653
2023-05-13T13:53:29.406Z,659
2023-05-13T13:56:17.230Z,608
2023-05-13T13:59:04.938Z,520
2023-05-13T14:01:53.032Z,656
2023-05-13T14:04:40.934Z,654
2023-05-13T14:07:28.788Z,652
2023-05-13T14:10:16.503Z,602
2023-05-13T14:13:04.290Z,644
2023-05-13T14:15:52.136Z,542
2023-05-13T14:18:40.253Z,513
2023-05-13T14:21:28.074Z,637
2023-05-13T14:24:15.696Z,535
2023-05-13T14:27:03.315Z,629
2023-05-13T14:29:51.041Z,510
2023-05-13T14:32:39.194Z,565
2023-05-13T14:35:27.273Z,520
2023-05-13T14:38:14.920Z,542
2023-05-13T14:41:02.589Z,428
2023-05-13T14:43:50.125Z,404
2023-05-13T14:46:37.868Z,400
2023-05-13T14:49:26.014Z,420
2023-05-13T14:52:13.830Z,438
2023-05-13T14:55:01.603Z,454
2023-05-13T14:57:49.386Z,468
2023-05-13T15:00:37.109Z,483
2023-05-13T15:03:25.233Z,505
2023-05-13T15:06:12.911Z,553
2023-05-13T15:09:00.769Z,431
2023-05-13T15:11:48.347Z,377
2023-05-13T15:14:36.179Z,329
2023-05-13T15:17:23.836Z,306
2023-05-13T15:20:12.012Z,298
2023-05-13T15:22:59.763Z,289
2023-05-13T15:25:47.638Z,299
2023-05-13T15:28:35.361Z,303
2023-05-13T15:31:23.195Z,322
2023-05-13T15:34:11.113Z,322
2023-05-13T15:36:58.912Z,335
2023-05-13T15:39:46.667Z,350
2023-05-13T15:42:34.481Z,350
2023-05-13T15:45:22.269Z,336
2023-05-13T15:48:10.365Z,316
2023-05-13T15:50:58.084Z,303
2023-05-13T15:53:45.769Z,282
2023-05-13T15:56:33.530Z,290
2023-05-13T15:59:21.284Z,310
2023-05-13T16:02:08.937Z,323
2023-05-13T16:04:57.105Z,323
2023-05-13T16:07:44.887Z,332
2023-05-13T16:10:32.669Z,362
2023-05-13T16:13:20.438Z,340
2023-05-13T16:16:08.363Z,337
2023-05-13T16:18:56.438Z,353
2023-05-13T16:21:44.364Z,383
2023-05-13T16:24:32.044Z,382
2023-05-13T16:27:19.808Z,372
2023-05-13T16:30:07.689Z,364
2023-05-13T16:32:55.613Z,348
2023-05-13T16:35:43.421Z,345
2023-05-13T16:38:31.117Z,337
2023-05-13T16:41:18.730Z,330
2023-05-13T16:44:06.427Z,354
2023-05-13T16:46:54.133Z,351
2023-05-13T16:49:42.045Z,359
2023-05-13T16:52:29.829Z,359
2023-05-13T16:55:17.558Z,349
2023-05-13T16:58:05.245Z,343
2023-05-13T17:00:53.010Z,346
2023-05-13T17:03:40.923Z,347
2023-05-13T17:06:28.798Z,356
2023-05-13T17:09:19.058Z,362
2023-05-13T17:12:06.790Z,356
2023-05-13T17:14:54.550Z,352
2023-05-13T17:17:42.197Z,345
2023-05-13T17:20:30.042Z,333
2023-05-13T17:23:17.905Z,318
2023-05-13T17:26:05.715Z,321
2023-05-13T17:28:57.568Z,336
2023-05-13T17:31:45.331Z,324
2023-05-13T17:34:33.182Z,323
2023-05-13T17:37:20.983Z,313
2023-05-13T17:40:08.811Z,305
2023-05-13T17:42:56.482Z,313
2023-05-13T17:45:44.332Z,315
2023-05-13T17:48:32.168Z,321
2023-05-13T17:51:20.313Z,315
2023-05-13T17:54:08.214Z,308
2023-05-13T17:56:56.169Z,303
2023-05-13T17:59:43.875Z,297
2023-05-13T18:02:31.797Z,295
2023-05-13T18:05:19.979Z,284
2023-05-13T18:08:08.149Z,287
2023-05-13T18:10:55.902Z,288
2023-05-13T18:13:43.943Z,272
2023-05-13T18:16:31.652Z,254
2023-05-13T18:19:19.497Z,242
2023-05-13T18:22:07.148Z,224
2023-05-13T18:24:54.970Z,210
2023-05-13T18:27:42.834Z,191
2023-05-13T18:30:31.612Z,183
2023-05-13T18:33:19.374Z,177
2023-05-13T18:36:07.467Z,167
2023-05-13T18:38:55.828Z,165
2023-05-13T18:41:43.717Z,167
2023-05-13T18:44:31.596Z,165
2023-05-13T18:47:19.849Z,161
2023-05-13T18:50:07.793Z,154
2023-05-13T18:52:55.781Z,148
2023-05-13T18:55:43.609Z,142
2023-05-13T18:58:31.596Z,132
2023-05-13T19:01:19.643Z,122
2023-05-13T19:04:08.015Z,113
2023-05-13T19:06:55.971Z,106
2023-05-13T19:09:43.721Z,94
2023-05-13T19:12:31.492Z,86
2023-05-13T19:15:19.370Z,75
2023-05-13T19:18:07.240Z,66
2023-05-13T19:20:55.312Z,60
2023-05-13T19:23:43.077Z,50
2023-05-13T19:26:30.708Z,42
2023-05-13T19:29:18.440Z,38
2023-05-13T19:32:06.216Z,30
2023-05-13T19:34:53.971Z,45
2023-05-13T19:37:41.841Z,23
2023-05-13T19:40:29.630Z,22
2023-05-13T19:43:17.508Z,15
2023-05-13T19:46:05.130Z,33
2023-05-13T19:48:53.127Z,14
2023-05-13T19:51:40.945Z,9
2023-05-13T19:54:29.006Z,15
2023-05-13T19:57:16.694Z,6
2023-05-13T20:00:04.428Z,11
2023-05-13T20:02:52.155Z,5
2023-05-13T20:05:40.349Z,16
2023-05-13T20:08:28.056Z,8
2023-05-13T20:11:15.956Z,2
2023-05-13T20:14:03.838Z,8
2023-05-13T20:16:51.809Z,8
2023-05-13T20:19:39.772Z,10
2023-05-13T20:22:27.667Z,7
2023-05-13T20:25:15.676Z,12
2023-05-13T20:28:03.738Z,11
2023-05-13T20:30:51.575Z,6
2023-05-13T20:33:40.684Z,8
2023-05-13T20:36:28.522Z,8
2023-05-13T20:39:16.727Z,9
2023-05-13T20:42:04.416Z,9
2023-05-13T20:44:52.539Z,9
2023-05-13T20:47:40.627Z,9
2023-05-13T20:50:28.553Z,8
2023-05-13T20:53:16.551Z,6
2023-05-13T20:56:04.523Z,6
2023-05-13T20:58:52.499Z,12
2023-05-13T21:01:40.564Z,7
2023-05-13T21:04:28.435Z,9
2023-05-13T21:07:16.548Z,12
2023-05-13T21:10:04.329Z,6
2023-05-13T21:12:52.310Z,7
2023-05-13T21:15:40.188Z,9
2023-05-13T21:18:28.473Z,9
2023-05-13T21:21:16.540Z,10
2023-05-13T21:24:04.522Z,9
2023-05-13T21:26:52.354Z,11
2023-05-13T21:29:40.343Z,12
2023-05-13T21:32:28.331Z,5
2023-05-13T21:35:16.314Z,9
2023-05-13T21:38:11.801Z,9
2023-05-13T21:41:00.428Z,13
2023-05-13T21:43:48.573Z,11
2023-05-13T21:46:36.612Z,9
2023-05-13T21:49:24.625Z,11
2023-05-13T21:52:12.653Z,10
2023-05-13T21:55:00.945Z,9
2023-05-13T21:57:49.019Z,12
2023-05-13T22:00:36.994Z,11
2023-05-13T22:03:25.125Z,12
2023-05-13T22:06:13.221Z,11
2023-05-13T22:09:01.249Z,9
2023-05-13T22:11:49.279Z,14
2023-05-13T22:14:37.262Z,11
2023-05-13T22:17:28.289Z,10
2023-05-13T22:20:16.774Z,6
2023-05-13T22:23:04.785Z,7
2023-05-13T22:25:52.945Z,12
2023-05-13T22:28:40.888Z,10
2023-05-13T22:31:28.855Z,10
2023-05-13T22:34:17.275Z,12
2023-05-13T22:37:05.369Z,11
2023-05-13T22:39:53.482Z,8
2023-05-13T22:42:42.313Z,11
2023-05-13T22:45:30.253Z,9
2023-05-13T22:48:18.653Z,3
2023-05-13T22:51:06.540Z,10
2023-05-13T22:53:54.682Z,16
2023-05-13T22:56:42.537Z,7
2023-05-13T22:59:30.551Z,9
2023-05-13T23:02:18.598Z,7
2023-05-13T23:05:06.687Z,10
2023-05-13T23:07:54.776Z,11
2023-05-13T23:10:42.807Z,11
2023-05-13T23:13:30.772Z,7
2023-05-13T23:16:18.927Z,8
2023-05-13T23:19:06.871Z,4
2023-05-13T23:21:54.965Z,9
2023-05-13T23:24:42.956Z,10
2023-05-13T23:27:31.043Z,10
2023-05-13T23:30:18.886Z,10
2023-05-13T23:33:06.801Z,8
2023-05-13T23:35:54.645Z,14
2023-05-13T23:38:42.584Z,7
2023-05-13T23:41:30.471Z,10
2023-05-13T23:44:18.248Z,9
2023-05-13T23:47:06.219Z,9
2023-05-13T23:49:54.315Z,10
2023-05-13T23:52:42.798Z,13
2023-05-13T23:55:30.673Z,10
2023-05-13T23:58:18.402Z,8
